Time;durP1;ratioP1;P1;durP2;ratioP2;P2;SDS_P1;SDS_P2;PMS_P1;PMS_P2;Temp;Humidity;BMP_temperature;BMP_pressure;BME280_temperature;BME280_humidity;BME280_pressure;Samples;Min_cycle;Max_cycle;Signal;HPM_P1;HPM_P2
2021/11/21 00:00:46;;;;;;;;;4.50;4.50;;;;;15.74;53.18;98241.22;4898304;28;104168;-68
2021/11/21 00:03:13;;;;;;;;;4.00;4.00;;;;;15.75;53.39;98231.97;4905444;28;102542;-67
2021/11/21 00:05:41;;;;;;;;;4.00;3.75;;;;;15.75;53.46;98231.97;4916728;28;102404;-68
2021/11/21 00:08:09;;;;;;;;;5.00;4.00;;;;;15.75;53.61;98237.44;4912199;28;103110;-69
2021/11/21 00:10:36;;;;;;;;;4.50;4.25;;;;;15.76;53.14;98232.81;4921495;28;104043;-69
2021/11/21 00:13:03;;;;;;;;;5.00;5.00;;;;;15.76;53.32;98230.06;4906723;28;102477;-68
2021/11/21 00:15:31;;;;;;;;;4.00;4.00;;;;;15.73;53.68;98231.38;4912986;28;102680;-68
2021/11/21 00:17:58;;;;;;;;;4.25;4.00;;;;;15.73;53.34;98222.38;4908914;28;102685;-68
2021/11/21 00:20:25;;;;;;;;;3.75;3.00;;;;;15.73;53.26;98220.47;4905777;28;104111;-68
2021/11/21 00:22:52;;;;;;;;;4.00;4.00;;;;;15.74;53.26;98221.31;4907620;28;104130;-68
2021/11/21 00:25:20;;;;;;;;;3.25;2.50;;;;;15.74;53.15;98222.13;4906229;28;103459;-68
2021/11/21 00:27:47;;;;;;;;;3.75;3.75;;;;;15.73;53.32;98215.03;4910042;28;102148;-68
2021/11/21 00:30:14;;;;;;;;;4.00;4.00;;;;;15.72;53.23;98224.25;4915169;28;104048;-68
2021/11/21 00:32:41;;;;;;;;;4.25;4.00;;;;;15.73;53.61;98220.47;4912169;28;103554;-68
2021/11/21 00:35:08;;;;;;;;;4.25;4.25;;;;;15.73;53.02;98217.75;4907436;28;103322;-68
2021/11/21 00:37:35;;;;;;;;;3.25;3.25;;;;;15.73;53.26;98215.03;4908436;28;102529;-68
2021/11/21 00:40:04;;;;;;;;;4.00;4.00;;;;;15.72;52.97;98218.81;4909047;28;104391;-68
2021/11/21 00:42:31;;;;;;;;;4.50;3.50;;;;;15.73;53.38;98209.56;4903413;28;102196;-69
2021/11/21 00:44:57;;;;;;;;;4.00;3.75;;;;;15.72;52.89;98205.19;4914864;28;110537;-68
2021/11/21 00:47:24;;;;;;;;;4.25;3.50;;;;;15.71;53.36;98198.09;4909133;28;103150;-68
2021/11/21 00:49:51;;;;;;;;;4.00;3.50;;;;;15.72;53.06;98202.44;4911271;28;104029;-68
2021/11/21 00:52:20;;;;;;;;;5.25;3.25;;;;;15.72;52.82;98199.72;4913590;28;102131;-68
2021/11/21 00:54:56;;;;;;;;;3.50;3.50;;;;;15.72;53.08;98202.44;4901849;28;103449;-68
2021/11/21 00:57:23;;;;;;;;;0.00;0.00;;;;;15.71;52.76;98198.09;4912266;28;102604;-68
2021/11/21 00:59:50;;;;;;;;;4.00;3.00;;;;;15.70;53.26;98196.44;4906834;28;103832;-68
2021/11/21 01:02:18;;;;;;;;;5.00;3.50;;;;;15.71;53.26;98189.91;4903210;28;102507;-68
2021/11/21 01:04:46;;;;;;;;;5.75;3.00;;;;;15.72;53.35;98201.63;4882914;28;102326;-68
2021/11/21 01:07:13;;;;;;;;;3.50;3.00;;;;;15.71;53.28;98189.91;4886951;28;102466;-68
2021/11/21 01:09:41;;;;;;;;;4.25;3.50;;;;;15.71;53.04;98186.38;4886686;28;111238;-68
2021/11/21 01:12:08;;;;;;;;;5.00;3.50;;;;;15.71;52.61;98181.75;4904744;28;102456;-68
2021/11/21 01:14:35;;;;;;;;;2.50;2.50;;;;;15.71;53.27;98181.75;4901450;28;102417;-68
2021/11/21 01:17:03;;;;;;;;;4.75;4.00;;;;;15.71;53.41;98189.09;4906642;28;103539;-68
2021/11/21 01:19:30;;;;;;;;;3.75;3.75;;;;;15.69;52.76;98178.41;4894464;28;104074;-68
2021/11/21 01:21:57;;;;;;;;;4.00;4.00;;;;;15.68;52.83;98176.75;4903375;28;103367;-68
2021/11/21 01:24:25;;;;;;;;;3.50;3.50;;;;;15.65;53.44;98170.97;4903324;28;102498;-68
2021/11/21 01:26:52;;;;;;;;;4.25;4.00;;;;;15.65;53.61;98169.06;4893631;28;103036;-68
2021/11/21 01:29:20;;;;;;;;;5.00;4.25;;;;;15.63;53.07;98168.47;4898834;28;104292;-69
2021/11/21 01:31:47;;;;;;;;;3.00;3.00;;;;;15.65;53.35;98160.91;4895591;28;103598;-68
2021/11/21 01:34:16;;;;;;;;;4.00;3.00;;;;;15.67;52.72;98160.66;4895753;28;102537;-68
2021/11/21 01:36:42;;;;;;;;;4.00;4.00;;;;;15.66;52.97;98151.66;4911166;28;102680;-69
2021/11/21 01:39:10;;;;;;;;;5.25;4.00;;;;;15.66;53.11;98148.94;4903482;28;104050;-68
2021/11/21 01:41:37;;;;;;;;;3.00;2.25;;;;;15.66;53.05;98148.94;4901883;28;105199;-68
2021/11/21 01:44:04;;;;;;;;;3.00;3.00;;;;;15.66;52.91;98148.09;4903666;28;102195;-68
2021/11/21 01:46:33;;;;;;;;;3.25;3.25;;;;;15.66;53.32;98151.66;4905297;28;102461;-68
2021/11/21 01:49:00;;;;;;;;;3.00;2.50;;;;;15.66;53.07;98145.38;4898811;28;104140;-68
2021/11/21 01:51:27;;;;;;;;;3.25;3.25;;;;;15.67;52.91;98130.69;4900432;28;104101;-68
2021/11/21 01:53:57;;;;;;;;;3.50;3.50;;;;;15.67;53.46;98131.47;4907899;28;102528;-68
2021/11/21 01:56:26;;;;;;;;;4.00;3.50;;;;;15.68;52.87;98130.41;4907163;28;102408;-67
2021/11/21 01:58:54;;;;;;;;;4.50;3.50;;;;;15.68;53.63;98121.41;4895158;28;104093;-67
2021/11/21 02:01:21;;;;;;;;;4.00;3.00;;;;;15.68;53.19;98119.53;4890581;28;103250;-68
2021/11/21 02:03:49;;;;;;;;;2.50;2.50;;;;;15.69;52.78;98112.16;4869398;28;102226;-67
2021/11/21 02:06:16;;;;;;;;;4.50;3.00;;;;;15.68;53.14;98111.34;4897696;28;102309;-69
2021/11/21 02:08:43;;;;;;;;;5.00;4.25;;;;;15.70;53.11;98102.94;4880429;28;105512;-68
2021/11/21 02:11:10;;;;;;;;;3.00;3.00;;;;;15.71;53.28;98101.88;4827550;28;102685;-68
2021/11/21 02:13:37;;;;;;;;;4.25;3.75;;;;;15.71;52.95;98099.13;4904910;28;102716;-68
2021/11/21 02:16:05;;;;;;;;;4.00;4.00;;;;;15.70;53.34;98092.84;4914221;28;102409;-68
2021/11/21 02:18:32;;;;;;;;;3.00;3.00;;;;;15.71;53.00;98089.06;4913361;28;103819;-68
2021/11/21 02:20:59;;;;;;;;;3.25;3.00;;;;;15.71;53.18;98094.50;4911856;28;105580;-68
2021/11/21 02:23:26;;;;;;;;;3.00;3.00;;;;;15.70;53.09;98078.41;4908865;28;102535;-69
2021/11/21 02:25:53;;;;;;;;;5.25;4.50;;;;;15.71;53.35;98080.88;4904067;28;102870;-68
2021/11/21 02:28:22;;;;;;;;;4.00;4.00;;;;;15.70;52.65;98076.50;4913888;28;104021;-68
2021/11/21 02:30:49;;;;;;;;;4.50;3.00;;;;;15.71;52.84;98071.88;4910056;28;105188;-67
2021/11/21 02:33:18;;;;;;;;;5.00;4.00;;;;;15.71;53.48;98067.25;4903395;28;103769;-68
2021/11/21 02:35:46;;;;;;;;;7.00;5.00;;;;;15.71;53.23;98061.81;4905827;28;103537;-68
2021/11/21 02:38:15;;;;;;;;;4.75;4.00;;;;;15.71;53.09;98056.34;4910320;28;104277;-68
2021/11/21 02:40:42;;;;;;;;;3.75;3.00;;;;;15.71;53.28;98060.97;4908578;28;103601;-68
2021/11/21 02:43:09;;;;;;;;;4.50;3.25;;;;;15.70;53.22;98060.16;4907627;28;102245;-69
2021/11/21 02:45:36;;;;;;;;;4.50;3.00;;;;;15.71;52.66;98055.53;4904802;28;102388;-68
2021/11/21 02:48:03;;;;;;;;;4.00;3.25;;;;;15.71;52.93;98048.19;4910745;28;103978;-68
2021/11/21 02:50:31;;;;;;;;;3.00;3.00;;;;;15.73;53.20;98031.56;4898610;28;104020;-68
2021/11/21 02:52:59;;;;;;;;;4.25;3.25;;;;;15.72;53.13;98044.34;4911859;28;102633;-68
2021/11/21 02:55:28;;;;;;;;;3.00;3.00;;;;;15.69;53.10;98031.22;4911774;28;102803;-68
2021/11/21 02:57:55;;;;;;;;;3.75;3.50;;;;;15.72;53.03;98022.56;4908353;28;112062;-68
2021/11/21 03:00:22;;;;;;;;;1.00;1.00;;;;;15.71;52.78;98020.91;4907537;28;103671;-68
2021/11/21 03:02:49;;;;;;;;;2.50;2.50;;;;;15.71;53.14;98011.91;4911769;28;102883;-68
2021/11/21 03:05:17;;;;;;;;;3.00;3.00;;;;;15.70;53.21;98010.25;4905842;28;102487;-68
2021/11/21 03:07:45;;;;;;;;;5.25;3.50;;;;;15.71;52.95;98017.38;4911889;28;104092;-68
2021/11/21 03:10:14;;;;;;;;;4.00;4.00;;;;;15.70;52.95;98011.09;4908514;28;102561;-68
2021/11/21 03:12:42;;;;;;;;;4.00;3.50;;;;;15.70;52.85;98011.09;4906008;28;102703;-68
2021/11/21 03:15:09;;;;;;;;;3.25;2.00;;;;;15.71;52.60;98007.28;4902372;28;102467;-68
2021/11/21 03:17:36;;;;;;;;;4.00;3.75;;;;;15.71;53.05;97998.28;4907085;28;104465;-68
2021/11/21 03:20:04;;;;;;;;;4.00;4.00;;;;;15.71;53.07;97996.38;4898645;28;102244;-68
2021/11/21 03:22:31;;;;;;;;;4.00;4.00;;;;;15.70;52.69;97988.44;4905582;28;102433;-68
2021/11/21 03:24:58;;;;;;;;;4.00;4.00;;;;;15.70;53.11;97993.91;4911674;28;102361;-68
2021/11/21 03:27:26;;;;;;;;;2.50;2.00;;;;;15.69;52.91;97992.25;4900891;28;104365;-68
2021/11/21 03:29:53;;;;;;;;;2.00;2.00;;;;;15.69;53.44;97993.06;4903111;28;102321;-68
2021/11/21 03:32:20;;;;;;;;;3.25;3.00;;;;;15.68;53.19;97990.59;4916627;28;102198;-68
2021/11/21 03:34:47;;;;;;;;;2.75;2.50;;;;;15.68;53.24;97991.41;4906487;28;102202;-68
2021/11/21 03:37:14;;;;;;;;;4.25;3.75;;;;;15.67;52.91;97980.78;4904468;28;104071;-68
2021/11/21 03:39:41;;;;;;;;;2.50;2.50;;;;;15.67;52.74;97987.03;4904586;28;105015;-68
2021/11/21 03:42:08;;;;;;;;;3.75;3.00;;;;;15.69;52.69;97989.53;4895347;28;102306;-68
2021/11/21 03:44:35;;;;;;;;;3.25;3.25;;;;;15.69;52.91;97984.06;4903340;28;102664;-68
2021/11/21 03:47:02;;;;;;;;;3.50;3.50;;;;;15.69;52.61;97981.34;4909037;28;104030;-68
2021/11/21 03:49:30;;;;;;;;;2.75;2.50;;;;;15.68;52.44;97991.41;4903384;28;103343;-68
2021/11/21 03:51:57;;;;;;;;;3.00;2.00;;;;;15.67;53.01;97981.59;4908597;28;103108;-68
2021/11/21 03:54:24;;;;;;;;;3.75;3.75;;;;;15.67;52.64;97987.03;4918540;28;102574;-68
2021/11/21 03:56:51;;;;;;;;;4.00;3.50;;;;;15.68;52.62;97975.06;4909744;28;103983;-68
2021/11/21 03:59:19;;;;;;;;;3.75;2.75;;;;;15.67;52.74;97967.94;4921014;28;102491;-68
2021/11/21 04:01:47;;;;;;;;;4.00;2.50;;;;;15.67;52.49;97967.16;4909945;28;102914;-68
2021/11/21 04:04:15;;;;;;;;;5.25;3.25;;;;;15.66;53.20;97969.06;4908289;28;102378;-68
2021/11/21 04:06:42;;;;;;;;;4.75;3.75;;;;;15.65;52.86;97959.22;4898684;28;104024;-68
2021/11/21 04:09:08;;;;;;;;;3.00;3.00;;;;;15.61;52.95;97953.44;4910425;28;102453;-68
2021/11/21 04:11:36;;;;;;;;;2.25;2.25;;;;;15.61;53.25;97958.91;4907967;28;102647;-68
2021/11/21 04:14:03;;;;;;;;;3.00;3.00;;;;;15.61;53.14;97949.91;4899250;28;102531;-68
2021/11/21 04:16:30;;;;;;;;;2.25;2.25;;;;;15.60;52.67;97950.97;4903655;28;103994;-68
2021/11/21 04:18:57;;;;;;;;;3.00;3.00;;;;;15.60;52.78;97950.97;4906946;28;102346;-68
2021/11/21 04:21:24;;;;;;;;;1.00;1.00;;;;;15.58;52.93;97942.19;4905650;28;102675;-68
2021/11/21 04:23:51;;;;;;;;;2.50;2.50;;;;;15.58;52.72;97944.91;4911486;28;102424;-68
2021/11/21 04:26:18;;;;;;;;;2.00;1.00;;;;;15.59;52.54;97932.94;4910124;28;112004;-68
2021/11/21 04:28:45;;;;;;;;;3.75;3.00;;;;;15.60;52.78;97938.16;4903096;28;102256;-68
2021/11/21 04:31:12;;;;;;;;;3.00;2.75;;;;;15.60;52.68;97924.53;4901038;28;103381;-68
2021/11/21 04:33:39;;;;;;;;;2.75;2.75;;;;;15.61;52.85;97930.81;4906132;28;102537;-68
2021/11/21 04:36:06;;;;;;;;;4.00;3.25;;;;;15.60;52.77;97924.53;4900679;28;103696;-68
2021/11/21 04:38:33;;;;;;;;;1.75;1.75;;;;;15.58;52.70;97920.41;4908726;28;112884;-68
2021/11/21 04:41:00;;;;;;;;;3.75;3.00;;;;;15.59;52.69;97916.59;4909276;28;102171;-68
2021/11/21 04:43:27;;;;;;;;;4.75;4.25;;;;;15.60;52.24;97923.72;4916656;28;102688;-67
2021/11/21 04:45:55;;;;;;;;;3.00;3.00;;;;;15.58;52.59;97918.50;4904350;28;104120;-67
2021/11/21 04:48:23;;;;;;;;;3.25;3.25;;;;;15.56;52.53;97906.22;4915641;28;102565;-68
2021/11/21 04:50:50;;;;;;;;;2.75;2.75;;;;;15.53;52.75;97909.44;4911449;28;102459;-68
2021/11/21 04:53:17;;;;;;;;;3.75;3.00;;;;;15.52;52.78;97913.25;4901325;28;102521;-67
2021/11/21 04:55:44;;;;;;;;;2.75;2.75;;;;;15.52;53.32;97907.78;4910578;28;104269;-68
2021/11/21 04:58:14;;;;;;;;;3.00;2.75;;;;;15.51;52.98;97900.69;4905318;28;102076;-68
2021/11/21 05:00:42;;;;;;;;;3.00;3.00;;;;;15.49;52.90;97894.63;4914031;28;103018;-68
2021/11/21 05:03:09;;;;;;;;;3.00;3.00;;;;;15.51;53.11;97892.50;4917781;28;102123;-67
2021/11/21 05:05:36;;;;;;;;;3.50;2.50;;;;;15.49;53.18;97895.44;4909549;28;104108;-67
2021/11/21 05:08:04;;;;;;;;;3.25;3.25;;;;;15.52;52.78;97891.44;4909011;28;102206;-67
2021/11/21 05:10:31;;;;;;;;;2.50;2.50;;;;;15.53;52.59;97884.91;4933709;28;102906;-68
2021/11/21 05:12:58;;;;;;;;;3.75;3.25;;;;;15.53;52.63;97883.03;4910335;28;102690;-67
2021/11/21 05:15:31;;;;;;;;;2.00;2.00;;;;;15.53;52.70;97884.91;4913080;28;104533;-68
2021/11/21 05:17:58;;;;;;;;;5.00;2.25;;;;;15.53;52.47;97884.91;4913774;28;102218;-67
2021/11/21 05:20:25;;;;;;;;;2.00;1.75;;;;;15.53;52.21;97883.03;4915682;28;102481;-68
2021/11/21 05:22:52;;;;;;;;;4.50;4.00;;;;;15.52;52.93;97891.44;4912919;28;103518;-68
2021/11/21 05:25:19;;;;;;;;;3.75;2.75;;;;;15.52;52.72;97888.72;4918044;28;108857;-68
2021/11/21 05:27:49;;;;;;;;;4.25;3.00;;;;;15.53;53.14;97890.38;4909998;28;102196;-67
2021/11/21 05:30:18;;;;;;;;;4.00;3.00;;;;;15.54;52.65;97875.66;4905731;28;102103;-68
2021/11/21 05:32:45;;;;;;;;;3.00;3.00;;;;;15.54;52.71;97886.53;4910762;28;102851;-68
2021/11/21 05:35:13;;;;;;;;;4.25;3.00;;;;;15.53;52.87;97876.75;4906689;28;103854;-67
2021/11/21 05:37:40;;;;;;;;;3.00;3.00;;;;;15.54;52.58;97864.75;4906368;28;102359;-68
2021/11/21 05:40:09;;;;;;;;;2.00;2.00;;;;;15.55;52.61;97866.41;4916510;28;104253;-68
2021/11/21 05:42:36;;;;;;;;;2.25;2.00;;;;;15.51;52.83;97862.53;4918755;28;102445;-68
2021/11/21 05:45:04;;;;;;;;;2.00;2.00;;;;;15.55;52.13;97871.84;4909442;28;103842;-68
2021/11/21 05:47:31;;;;;;;;;2.75;2.50;;;;;15.56;52.72;97868.06;4908641;28;103103;-68
2021/11/21 05:49:59;;;;;;;;;2.00;2.00;;;;;15.56;53.02;97859.88;4890909;28;102857;-68
2021/11/21 05:52:26;;;;;;;;;2.75;2.00;;;;;15.56;52.44;97859.88;4910592;28;102388;-68
2021/11/21 05:54:53;;;;;;;;;3.25;2.75;;;;;15.57;52.73;97859.66;4907444;28;109227;-68
2021/11/21 05:57:20;;;;;;;;;2.50;2.50;;;;;15.57;52.38;97858.81;4911252;28;102337;-68
2021/11/21 05:59:47;;;;;;;;;3.50;2.75;;;;;15.57;52.47;97858.81;4915293;28;102665;-68
2021/11/21 06:02:14;;;;;;;;;3.25;2.00;;;;;15.56;53.08;97857.16;4910403;28;102250;-68
2021/11/21 06:04:41;;;;;;;;;4.00;4.00;;;;;15.57;52.62;97864.25;4913153;28;106970;-68
2021/11/21 06:07:10;;;;;;;;;1.25;1.00;;;;;15.57;52.69;97867.00;4912254;28;102230;-68
2021/11/21 06:09:37;;;;;;;;;4.00;3.00;;;;;15.56;52.66;97863.44;4912196;28;103831;-67
2021/11/21 06:12:04;;;;;;;;;2.25;2.00;;;;;15.58;52.95;97860.44;4916616;28;102117;-67
2021/11/21 06:14:32;;;;;;;;;3.00;3.00;;;;;15.59;52.76;97867.53;4902658;28;104081;-68
2021/11/21 06:16:59;;;;;;;;;3.25;2.75;;;;;15.59;52.61;97862.09;4907757;28;102163;-67
2021/11/21 06:19:26;;;;;;;;;2.50;2.00;;;;;15.58;53.08;97855.81;4910967;28;102710;-68
2021/11/21 06:21:53;;;;;;;;;3.75;2.00;;;;;15.60;52.78;97855.56;4912019;28;102543;-68
2021/11/21 06:24:20;;;;;;;;;4.00;3.50;;;;;15.59;52.67;97867.53;4898895;28;104217;-68
2021/11/21 06:26:47;;;;;;;;;5.00;4.00;;;;;15.61;52.48;97865.41;4905551;28;102277;-68
2021/11/21 06:29:14;;;;;;;;;2.00;2.00;;;;;15.60;52.31;97863.75;4901278;28;102415;-68
2021/11/21 06:31:41;;;;;;;;;2.00;2.00;;;;;15.59;52.63;97862.09;4903093;28;102620;-68
2021/11/21 06:34:08;;;;;;;;;4.25;3.00;;;;;15.58;52.31;97860.44;4907217;28;104317;-68
2021/11/21 06:36:36;;;;;;;;;4.75;3.00;;;;;15.58;53.00;97872.16;4912549;28;102064;-67
2021/11/21 06:39:03;;;;;;;;;4.75;4.00;;;;;15.58;52.97;97871.34;4909182;28;103024;-67
2021/11/21 06:41:30;;;;;;;;;4.00;2.75;;;;;15.57;52.41;97875.16;4913802;28;102643;-67
2021/11/21 06:43:57;;;;;;;;;4.75;4.25;;;;;15.58;52.32;97872.16;4903494;28;103816;-67
2021/11/21 06:46:24;;;;;;;;;3.00;3.00;;;;;15.59;52.42;97875.72;4908056;28;102616;-68
2021/11/21 06:48:51;;;;;;;;;3.00;3.00;;;;;15.59;52.64;97873.00;4912387;28;103015;-68
2021/11/21 06:51:19;;;;;;;;;2.00;2.00;;;;;15.59;52.63;97867.53;4902827;28;104165;-68
2021/11/21 06:53:48;;;;;;;;;3.25;3.00;;;;;15.59;53.07;97873.00;4900064;28;104074;-68
2021/11/21 06:56:15;;;;;;;;;3.50;2.75;;;;;15.58;52.80;97871.34;4905981;28;102410;-68
2021/11/21 06:58:42;;;;;;;;;2.50;2.50;;;;;15.59;52.45;97868.38;4910735;28;109270;-68
2021/11/21 07:01:09;;;;;;;;;4.00;3.00;;;;;15.57;52.52;97859.66;4901952;28;102545;-68
2021/11/21 07:03:37;;;;;;;;;2.75;2.50;;;;;15.55;52.58;97856.34;4901708;28;104347;-68
2021/11/21 07:06:04;;;;;;;;;3.00;2.25;;;;;15.58;52.25;97852.28;4905455;28;102560;-68
2021/11/21 07:08:31;;;;;;;;;3.75;3.00;;;;;15.58;52.74;97852.28;4889229;28;102128;-68
2021/11/21 07:10:58;;;;;;;;;3.50;3.25;;;;;15.58;52.52;97849.53;4913754;28;105568;-66
2021/11/21 07:13:25;;;;;;;;;3.50;3.00;;;;;15.58;52.78;97860.44;4909754;28;104101;-68
2021/11/21 07:15:52;;;;;;;;;0.75;0.50;;;;;15.57;52.55;97846.03;4905188;28;102574;-68
2021/11/21 07:18:19;;;;;;;;;3.75;3.00;;;;;15.59;52.35;97848.47;4908398;28;102442;-68
2021/11/21 07:20:46;;;;;;;;;3.00;3.00;;;;;15.58;52.32;97844.09;4910570;28;102676;-68
2021/11/21 07:23:19;;;;;;;;;4.00;2.25;;;;;15.58;52.04;97835.91;4904761;28;103853;-68
2021/11/21 07:25:46;;;;;;;;;4.00;3.00;;;;;15.57;52.46;97831.56;4911974;28;102374;-68
2021/11/21 07:28:13;;;;;;;;;3.00;3.00;;;;;15.58;52.32;97822.28;4905828;28;105280;-68
2021/11/21 07:30:40;;;;;;;;;2.75;2.75;;;;;15.56;52.47;97822.56;4902014;28;102394;-68
2021/11/21 07:33:07;;;;;;;;;2.50;2.25;;;;;15.57;52.62;97820.66;4901198;28;104205;-68
2021/11/21 07:35:34;;;;;;;;;3.25;3.00;;;;;15.56;52.36;97819.00;4906201;28;102160;-68
2021/11/21 07:38:01;;;;;;;;;0.00;0.00;;;;;15.56;52.62;97817.13;4907587;28;102592;-68
2021/11/21 07:40:28;;;;;;;;;2.25;2.00;;;;;15.54;52.44;97821.16;4912128;28;102338;-68
2021/11/21 07:42:55;;;;;;;;;3.00;3.00;;;;;15.54;51.91;97815.69;4909812;28;108838;-68
2021/11/21 07:45:22;;;;;;;;;2.75;2.75;;;;;15.54;52.43;97826.59;4905386;28;102451;-68
2021/11/21 07:47:49;;;;;;;;;2.50;2.50;;;;;15.54;52.73;97823.88;4905064;28;102657;-68
2021/11/21 07:50:16;;;;;;;;;3.00;3.00;;;;;15.53;52.01;97824.97;4910442;28;102463;-68
2021/11/21 07:52:43;;;;;;;;;3.00;2.00;;;;;15.53;52.18;97825.81;4907230;28;111546;-68
2021/11/21 07:55:10;;;;;;;;;3.75;2.50;;;;;15.54;52.43;97826.59;4901961;28;102340;-68
2021/11/21 07:57:37;;;;;;;;;4.00;3.00;;;;;15.54;52.29;97816.53;4913241;28;103593;-68
2021/11/21 08:00:06;;;;;;;;;3.00;3.00;;;;;15.55;52.57;97825.53;4910578;28;102492;-68
2021/11/21 08:02:33;;;;;;;;;3.50;3.00;;;;;15.54;52.17;97816.53;4908385;28;104546;-67
2021/11/21 08:05:01;;;;;;;;;4.25;3.00;;;;;15.54;52.46;97824.69;4908249;28;102521;-68
2021/11/21 08:07:30;;;;;;;;;4.00;3.00;;;;;15.54;52.02;97813.81;4900952;28;103481;-67
2021/11/21 08:09:57;;;;;;;;;3.00;2.75;;;;;15.53;52.33;97822.25;4908217;28;103344;-68
2021/11/21 08:12:24;;;;;;;;;2.00;2.00;;;;;15.53;52.18;97824.97;4906312;28;108971;-68
2021/11/21 08:14:51;;;;;;;;;3.25;3.00;;;;;15.54;52.31;97812.97;4904457;28;102414;-68
2021/11/21 08:17:18;;;;;;;;;3.00;3.00;;;;;15.54;52.38;97799.34;4898021;28;103123;-68
2021/11/21 08:19:46;;;;;;;;;2.50;2.25;;;;;15.54;52.69;97804.81;4906919;28;102386;-68
2021/11/21 08:22:13;;;;;;;;;3.75;3.50;;;;;15.56;52.61;97816.28;4911266;28;104112;-68
2021/11/21 08:24:40;;;;;;;;;3.00;2.00;;;;;15.57;52.99;97815.22;4905392;28;102496;-68
2021/11/21 08:27:07;;;;;;;;;2.00;2.00;;;;;15.57;52.52;97809.78;4917560;28;102604;-68
2021/11/21 08:29:34;;;;;;;;;3.00;3.00;;;;;15.57;52.44;97809.78;4906835;28;102187;-68
2021/11/21 08:32:01;;;;;;;;;2.50;2.50;;;;;15.58;52.84;97801.31;4904787;28;103995;-68
2021/11/21 08:34:29;;;;;;;;;3.00;2.50;;;;;15.59;52.47;97811.16;4908344;28;103200;-68
2021/11/21 08:36:56;;;;;;;;;4.00;4.00;;;;;15.60;52.52;97809.25;4906493;28;104794;-68
2021/11/21 08:39:23;;;;;;;;;2.25;2.00;;;;;15.60;52.24;97806.53;4900958;28;102676;-68
2021/11/21 08:41:50;;;;;;;;;2.50;2.50;;;;;15.61;53.07;97802.72;4902682;28;104083;-68
2021/11/21 08:44:17;;;;;;;;;3.00;2.50;;;;;15.62;52.81;97797.00;4908923;28;103445;-68
2021/11/21 08:46:45;;;;;;;;;4.00;3.25;;;;;15.62;52.66;97798.94;4903695;28;103657;-68
2021/11/21 08:49:13;;;;;;;;;2.50;2.00;;;;;15.61;52.80;97797.28;4891773;28;102565;-68
2021/11/21 08:51:40;;;;;;;;;4.00;3.00;;;;;15.63;53.00;97797.84;4911220;28;104080;-68
2021/11/21 08:54:08;;;;;;;;;2.25;2.25;;;;;15.63;52.47;97795.13;4905701;28;103713;-67
2021/11/21 08:56:34;;;;;;;;;4.25;2.75;;;;;15.63;52.50;97793.22;4908111;28;102446;-67
2021/11/21 08:59:04;;;;;;;;;2.00;2.00;;;;;15.64;52.29;97799.50;4914444;28;102471;-68
2021/11/21 09:01:32;;;;;;;;;2.50;2.50;;;;;15.64;52.63;97799.50;4903495;28;104052;-66
2021/11/21 09:03:59;;;;;;;;;1.50;1.50;;;;;15.65;52.38;97795.69;4909123;28;102569;-68
2021/11/21 09:06:29;;;;;;;;;3.00;2.00;;;;;15.66;52.42;97797.34;4909675;28;102174;-68
2021/11/21 09:08:56;;;;;;;;;2.25;2.25;;;;;15.64;52.39;97794.03;4907079;28;102277;-68
2021/11/21 09:11:23;;;;;;;;;3.25;3.25;;;;;15.65;52.32;97795.69;4901267;28;104337;-68
2021/11/21 09:13:50;;;;;;;;;2.00;1.25;;;;;15.65;52.61;97792.97;4915163;28;102637;-69
2021/11/21 09:16:17;;;;;;;;;2.00;1.00;;;;;15.67;52.67;97790.00;4903165;28;102663;-68
2021/11/21 09:18:45;;;;;;;;;2.00;2.00;;;;;15.66;52.08;97786.44;4908967;28;102442;-68
2021/11/21 09:21:12;;;;;;;;;2.00;2.00;;;;;15.67;52.65;97790.00;4909361;28;104196;-68
2021/11/21 09:23:39;;;;;;;;;1.25;1.25;;;;;15.68;52.29;97792.44;4903220;28;102350;-68
2021/11/21 09:26:06;;;;;;;;;2.00;2.00;;;;;15.68;52.43;97787.00;4901343;28;110621;-68
2021/11/21 09:28:33;;;;;;;;;3.00;2.25;;;;;15.68;52.19;97795.19;4908592;28;102705;-67
2021/11/21 09:31:00;;;;;;;;;2.00;2.00;;;;;15.68;52.52;97784.28;4905921;28;104064;-68
2021/11/21 09:33:29;;;;;;;;;2.00;2.00;;;;;15.69;52.40;97780.47;4900196;28;102335;-68
2021/11/21 09:35:56;;;;;;;;;2.00;2.00;;;;;15.68;52.31;97775.28;4902947;28;112508;-68
2021/11/21 09:38:24;;;;;;;;;2.75;2.75;;;;;15.69;51.89;97775.03;4904576;28;102564;-69
2021/11/21 09:40:51;;;;;;;;;2.50;2.25;;;;;15.67;52.63;97771.72;4906402;28;104067;-68
2021/11/21 09:43:18;;;;;;;;;3.00;2.00;;;;;15.69;52.18;97769.59;4909344;28;102535;-68
2021/11/21 09:45:45;;;;;;;;;2.00;1.25;;;;;15.70;52.10;97764.97;4896675;28;102710;-68
2021/11/21 09:48:12;;;;;;;;;2.50;2.00;;;;;15.69;51.85;97753.22;4899657;28;103655;-68
2021/11/21 09:50:40;;;;;;;;;2.75;2.75;;;;;15.70;52.67;97752.16;4910251;28;103973;-67
2021/11/21 09:53:08;;;;;;;;;2.00;2.00;;;;;15.70;52.73;97745.88;4911990;28;102080;-68
2021/11/21 09:55:35;;;;;;;;;1.00;1.00;;;;;15.71;52.70;97742.09;4902710;28;102738;-68
2021/11/21 09:58:03;;;;;;;;;2.00;2.00;;;;;15.70;52.27;97741.25;4908788;28;103281;-68
2021/11/21 10:00:30;;;;;;;;;2.00;1.00;;;;;15.72;52.78;97735.53;4912944;28;104037;-68
2021/11/21 10:03:08;;;;;;;;;3.00;3.00;;;;;15.71;52.06;97732.00;4899079;28;102362;-68
2021/11/21 10:05:37;;;;;;;;;2.00;2.00;;;;;15.72;52.26;97727.34;4907331;28;102537;-68
2021/11/21 10:08:11;;;;;;;;;2.00;1.00;;;;;15.73;52.44;97726.28;4915511;28;102996;-68
2021/11/21 10:11:16;;;;;;;;;2.75;2.00;;;;;15.72;52.08;97725.44;4903907;28;103901;-68
2021/11/21 10:13:45;;;;;;;;;3.00;2.00;;;;;15.73;52.48;97721.66;4879581;28;102692;-67
2021/11/21 10:16:18;;;;;;;;;2.00;2.00;;;;;15.75;52.61;97724.97;4899890;28;102730;-68
2021/11/21 10:18:48;;;;;;;;;2.50;2.50;;;;;15.75;52.65;97715.97;4913053;28;102316;-68
2021/11/21 10:21:16;;;;;;;;;4.00;1.75;;;;;15.76;52.05;97720.34;4910243;28;104100;-68
2021/11/21 10:23:44;;;;;;;;;5.00;3.75;;;;;15.76;52.43;97721.13;4910235;28;102643;-67
2021/11/21 10:26:22;;;;;;;;;1.25;1.25;;;;;15.76;52.11;97720.34;4906410;28;102496;-68
2021/11/21 10:28:49;;;;;;;;;2.00;2.00;;;;;15.76;52.29;97718.41;4908889;28;102301;-68
2021/11/21 10:31:20;;;;;;;;;3.75;2.00;;;;;15.76;52.41;97710.22;4909534;28;104016;-68
2021/11/21 10:33:55;;;;;;;;;2.25;1.75;;;;;15.77;52.26;97711.06;4913451;28;102871;-68
2021/11/21 10:36:29;;;;;;;;;3.00;2.00;;;;;15.77;51.56;97709.16;4914227;28;102610;-68
2021/11/21 10:38:57;;;;;;;;;2.50;2.00;;;;;15.78;51.85;97705.38;4908750;28;102763;-68
2021/11/21 10:41:26;;;;;;;;;2.00;1.25;;;;;15.77;52.25;97698.25;4923661;28;103863;-68
2021/11/21 10:44:05;;;;;;;;;3.00;3.00;;;;;15.78;52.33;97713.53;4913990;28;102170;-68
2021/11/21 10:46:34;;;;;;;;;2.00;2.00;;;;;15.79;51.94;97708.91;4912895;28;102501;-68
2021/11/21 10:49:38;;;;;;;;;2.00;2.00;;;;;15.78;52.13;97702.63;4911197;28;102483;-68
2021/11/21 10:52:22;;;;;;;;;1.00;1.00;;;;;15.79;52.08;97703.47;4915345;28;108893;-68
2021/11/21 10:54:57;;;;;;;;;2.50;2.00;;;;;15.80;51.81;97691.50;4910511;28;102513;-68
2021/11/21 10:57:29;;;;;;;;;2.25;2.00;;;;;15.78;52.18;97691.72;4905485;28;102138;-67
2021/11/21 10:59:59;;;;;;;;;3.00;2.00;;;;;15.79;52.22;97689.84;4904529;28;102671;-67
2021/11/21 11:02:31;;;;;;;;;3.25;2.00;;;;;15.78;52.12;97689.00;4913981;28;104506;-67
2021/11/21 11:05:06;;;;;;;;;2.00;2.00;;;;;15.80;52.13;97688.75;4905625;28;102302;-68
2021/11/21 11:07:41;;;;;;;;;5.00;2.50;;;;;15.80;51.83;97686.88;4907776;28;103292;-67
2021/11/21 11:10:13;;;;;;;;;2.00;2.00;;;;;15.80;51.66;97684.13;4910044;28;103233;-68
2021/11/21 11:12:41;;;;;;;;;2.00;2.00;;;;;15.82;51.75;97689.31;4902244;28;104167;-67
2021/11/21 11:15:08;;;;;;;;;2.00;2.00;;;;;15.84;52.15;97684.44;4895662;28;102578;-67
2021/11/21 11:17:36;;;;;;;;;2.00;2.00;;;;;15.84;51.87;97673.53;4906139;28;102546;-67
2021/11/21 11:20:05;;;;;;;;;2.00;2.00;;;;;15.86;51.91;97682.25;4914289;28;111209;-67
2021/11/21 11:22:31;;;;;;;;;2.25;2.00;;;;;15.87;52.07;97690.19;4894882;28;108883;-68
2021/11/21 11:25:02;;;;;;;;;2.00;2.00;;;;;15.87;52.15;97673.00;4909373;28;107732;-68
2021/11/21 11:27:44;;;;;;;;;2.00;2.00;;;;;15.90;52.26;97661.59;4913112;28;102302;-68